sensor_id;sensor_type;location;lat;lon;timestamp;P1;durP1;ratioP1;P2;durP2;ratioP2
43435;SDS011;36399;51.444;-2.018;2023-06-19T00:00:21;1.43;;;1.23;;
43435;SDS011;36399;51.444;-2.018;2023-06-19T00:02:47;3.47;;;1.30;;
43435;SDS011;36399;51.444;-2.018;2023-06-19T00:05:13;2.67;;;1.00;;
43435;SDS011;36399;51.444;-2.018;2023-06-19T00:07:39;2.33;;;1.33;;
43435;SDS011;36399;51.444;-2.018;2023-06-19T00:10:05;0.50;;;0.50;;
43435;SDS011;36399;51.444;-2.018;2023-06-19T00:12:32;8.87;;;2.57;;
43435;SDS011;36399;51.444;-2.018;2023-06-19T00:14:59;3.37;;;2.17;;
43435;SDS011;36399;51.444;-2.018;2023-06-19T00:17:25;2.30;;;1.40;;
43435;SDS011;36399;51.444;-2.018;2023-06-19T00:19:52;1.60;;;0.77;;
43435;SDS011;36399;51.444;-2.018;2023-06-19T00:22:19;0.83;;;0.77;;
43435;SDS011;36399;51.444;-2.018;2023-06-19T00:24:45;2.13;;;1.93;;
43435;SDS011;36399;51.444;-2.018;2023-06-19T00:27:11;10.07;;;2.57;;
43435;SDS011;36399;51.444;-2.018;2023-06-19T00:29:37;5.97;;;4.03;;
43435;SDS011;36399;51.444;-2.018;2023-06-19T00:32:03;0.47;;;0.47;;
43435;SDS011;36399;51.444;-2.018;2023-06-19T00:34:30;1.90;;;1.43;;
43435;SDS011;36399;51.444;-2.018;2023-06-19T00:36:58;4.47;;;2.13;;
43435;SDS011;36399;51.444;-2.018;2023-06-19T00:39:25;0.73;;;0.70;;
43435;SDS011;36399;51.444;-2.018;2023-06-19T00:41:51;2.33;;;1.67;;
43435;SDS011;36399;51.444;-2.018;2023-06-19T00:44:17;2.63;;;0.57;;
43435;SDS011;36399;51.444;-2.018;2023-06-19T00:46:44;2.57;;;1.60;;
43435;SDS011;36399;51.444;-2.018;2023-06-19T00:49:10;4.67;;;2.13;;
43435;SDS011;36399;51.444;-2.018;2023-06-19T00:51:37;2.20;;;1.53;;
43435;SDS011;36399;51.444;-2.018;2023-06-19T00:54:04;0.63;;;0.53;;
43435;SDS011;36399;51.444;-2.018;2023-06-19T00:56:31;2.13;;;1.30;;
43435;SDS011;36399;51.444;-2.018;2023-06-19T00:58:57;2.33;;;1.50;;
43435;SDS011;36399;51.444;-2.018;2023-06-19T01:01:24;1.53;;;1.43;;
43435;SDS011;36399;51.444;-2.018;2023-06-19T01:03:51;2.00;;;1.57;;
43435;SDS011;36399;51.444;-2.018;2023-06-19T01:06:21;3.63;;;2.57;;
43435;SDS011;36399;51.444;-2.018;2023-06-19T01:09:01;1.60;;;0.77;;
43435;SDS011;36399;51.444;-2.018;2023-06-19T01:11:32;1.40;;;1.30;;
43435;SDS011;36399;51.444;-2.018;2023-06-19T01:14:30;3.07;;;2.30;;
43435;SDS011;36399;51.444;-2.018;2023-06-19T01:17:05;2.23;;;2.10;;
43435;SDS011;36399;51.444;-2.018;2023-06-19T01:19:31;2.03;;;1.70;;
43435;SDS011;36399;51.444;-2.018;2023-06-19T01:22:01;0.90;;;0.90;;
43435;SDS011;36399;51.444;-2.018;2023-06-19T01:24:28;3.03;;;2.47;;
43435;SDS011;36399;51.444;-2.018;2023-06-19T01:26:54;1.80;;;1.47;;
43435;SDS011;36399;51.444;-2.018;2023-06-19T01:29:20;2.33;;;2.13;;
43435;SDS011;36399;51.444;-2.018;2023-06-19T01:34:35;2.40;;;1.00;;
43435;SDS011;36399;51.444;-2.018;2023-06-19T01:37:03;1.00;;;0.90;;
43435;SDS011;36399;51.444;-2.018;2023-06-19T01:39:31;2.00;;;1.43;;
43435;SDS011;36399;51.444;-2.018;2023-06-19T01:41:58;2.43;;;2.23;;
43435;SDS011;36399;51.444;-2.018;2023-06-19T01:44:25;1.37;;;0.83;;
43435;SDS011;36399;51.444;-2.018;2023-06-19T01:46:51;1.03;;;0.90;;
43435;SDS011;36399;51.444;-2.018;2023-06-19T01:49:17;2.00;;;1.83;;
43435;SDS011;36399;51.444;-2.018;2023-06-19T01:51:43;1.77;;;1.67;;
43435;SDS011;36399;51.444;-2.018;2023-06-19T01:54:09;2.97;;;2.67;;
43435;SDS011;36399;51.444;-2.018;2023-06-19T01:56:35;4.33;;;2.77;;
43435;SDS011;36399;51.444;-2.018;2023-06-19T01:59:02;1.70;;;1.60;;
43435;SDS011;36399;51.444;-2.018;2023-06-19T02:01:28;8.47;;;2.67;;
43435;SDS011;36399;51.444;-2.018;2023-06-19T02:03:54;0.93;;;0.93;;
43435;SDS011;36399;51.444;-2.018;2023-06-19T02:06:20;2.43;;;2.27;;
43435;SDS011;36399;51.444;-2.018;2023-06-19T02:08:47;1.20;;;1.17;;
43435;SDS011;36399;51.444;-2.018;2023-06-19T02:11:14;1.43;;;1.27;;
43435;SDS011;36399;51.444;-2.018;2023-06-19T02:13:40;3.37;;;2.40;;
43435;SDS011;36399;51.444;-2.018;2023-06-19T02:16:07;4.80;;;1.43;;
43435;SDS011;36399;51.444;-2.018;2023-06-19T02:18:33;2.90;;;2.10;;
43435;SDS011;36399;51.444;-2.018;2023-06-19T02:20:58;2.87;;;2.67;;
43435;SDS011;36399;51.444;-2.018;2023-06-19T02:23:24;1.60;;;1.50;;
43435;SDS011;36399;51.444;-2.018;2023-06-19T02:25:51;4.80;;;2.20;;
43435;SDS011;36399;51.444;-2.018;2023-06-19T02:28:17;3.37;;;1.77;;
43435;SDS011;36399;51.444;-2.018;2023-06-19T02:30:43;2.53;;;1.93;;
43435;SDS011;36399;51.444;-2.018;2023-06-19T02:33:09;4.30;;;2.10;;
43435;SDS011;36399;51.444;-2.018;2023-06-19T02:35:35;1.70;;;1.60;;
43435;SDS011;36399;51.444;-2.018;2023-06-19T02:38:01;2.80;;;2.53;;
43435;SDS011;36399;51.444;-2.018;2023-06-19T02:40:27;1.17;;;1.07;;
43435;SDS011;36399;51.444;-2.018;2023-06-19T02:42:53;1.47;;;1.37;;
43435;SDS011;36399;51.444;-2.018;2023-06-19T02:45:19;2.17;;;2.00;;
43435;SDS011;36399;51.444;-2.018;2023-06-19T02:47:44;2.30;;;1.27;;
43435;SDS011;36399;51.444;-2.018;2023-06-19T02:50:10;6.87;;;3.30;;
43435;SDS011;36399;51.444;-2.018;2023-06-19T02:52:36;2.07;;;1.90;;
43435;SDS011;36399;51.444;-2.018;2023-06-19T02:55:02;1.43;;;1.33;;
43435;SDS011;36399;51.444;-2.018;2023-06-19T02:57:28;3.27;;;2.03;;
43435;SDS011;36399;51.444;-2.018;2023-06-19T02:59:54;7.80;;;2.60;;
43435;SDS011;36399;51.444;-2.018;2023-06-19T03:02:20;3.47;;;3.17;;
43435;SDS011;36399;51.444;-2.018;2023-06-19T03:04:46;2.20;;;1.90;;
43435;SDS011;36399;51.444;-2.018;2023-06-19T03:07:12;0.63;;;0.53;;
43435;SDS011;36399;51.444;-2.018;2023-06-19T03:09:42;2.20;;;1.97;;
43435;SDS011;36399;51.444;-2.018;2023-06-19T03:12:08;2.17;;;1.97;;
43435;SDS011;36399;51.444;-2.018;2023-06-19T03:14:34;3.90;;;2.17;;
43435;SDS011;36399;51.444;-2.018;2023-06-19T03:17:00;5.17;;;2.60;;
43435;SDS011;36399;51.444;-2.018;2023-06-19T03:19:27;3.07;;;2.33;;
43435;SDS011;36399;51.444;-2.018;2023-06-19T03:21:53;3.57;;;1.47;;
43435;SDS011;36399;51.444;-2.018;2023-06-19T03:24:18;1.47;;;1.37;;
43435;SDS011;36399;51.444;-2.018;2023-06-19T03:26:44;0.87;;;0.87;;
43435;SDS011;36399;51.444;-2.018;2023-06-19T03:29:10;3.70;;;3.47;;
43435;SDS011;36399;51.444;-2.018;2023-06-19T03:31:36;2.70;;;1.47;;
43435;SDS011;36399;51.444;-2.018;2023-06-19T03:34:05;2.87;;;2.67;;
43435;SDS011;36399;51.444;-2.018;2023-06-19T03:36:31;3.73;;;2.27;;
43435;SDS011;36399;51.444;-2.018;2023-06-19T03:38:57;3.40;;;2.23;;
43435;SDS011;36399;51.444;-2.018;2023-06-19T03:41:22;0.60;;;0.60;;
43435;SDS011;36399;51.444;-2.018;2023-06-19T03:43:48;2.97;;;2.77;;
43435;SDS011;36399;51.444;-2.018;2023-06-19T03:46:14;1.83;;;1.60;;
43435;SDS011;36399;51.444;-2.018;2023-06-19T03:48:40;1.13;;;1.10;;
43435;SDS011;36399;51.444;-2.018;2023-06-19T03:51:06;1.30;;;1.30;;
43435;SDS011;36399;51.444;-2.018;2023-06-19T03:53:32;2.23;;;1.77;;
43435;SDS011;36399;51.444;-2.018;2023-06-19T03:55:58;1.97;;;1.73;;
43435;SDS011;36399;51.444;-2.018;2023-06-19T03:58:24;3.53;;;2.73;;
43435;SDS011;36399;51.444;-2.018;2023-06-19T04:00:50;3.43;;;3.07;;
43435;SDS011;36399;51.444;-2.018;2023-06-19T04:03:17;2.00;;;0.83;;
43435;SDS011;36399;51.444;-2.018;2023-06-19T04:05:43;3.40;;;2.60;;
43435;SDS011;36399;51.444;-2.018;2023-06-19T04:08:09;2.73;;;1.67;;
43435;SDS011;36399;51.444;-2.018;2023-06-19T04:10:35;3.80;;;1.73;;
43435;SDS011;36399;51.444;-2.018;2023-06-19T04:13:00;11.57;;;2.20;;
43435;SDS011;36399;51.444;-2.018;2023-06-19T04:15:26;2.57;;;2.37;;
43435;SDS011;36399;51.444;-2.018;2023-06-19T04:17:52;3.53;;;2.57;;
43435;SDS011;36399;51.444;-2.018;2023-06-19T04:20:18;2.23;;;2.07;;
43435;SDS011;36399;51.444;-2.018;2023-06-19T04:22:45;3.63;;;2.63;;
43435;SDS011;36399;51.444;-2.018;2023-06-19T04:25:11;11.30;;;3.50;;
43435;SDS011;36399;51.444;-2.018;2023-06-19T04:27:37;6.33;;;3.30;;
43435;SDS011;36399;51.444;-2.018;2023-06-19T04:30:03;1.67;;;1.57;;
43435;SDS011;36399;51.444;-2.018;2023-06-19T04:32:32;3.20;;;2.93;;
43435;SDS011;36399;51.444;-2.018;2023-06-19T04:35:00;9.93;;;3.10;;
43435;SDS011;36399;51.444;-2.018;2023-06-19T04:37:26;3.73;;;2.90;;
43435;SDS011;36399;51.444;-2.018;2023-06-19T04:39:52;3.30;;;1.90;;
43435;SDS011;36399;51.444;-2.018;2023-06-19T04:42:18;3.00;;;2.70;;
43435;SDS011;36399;51.444;-2.018;2023-06-19T04:44:45;4.73;;;2.97;;
43435;SDS011;36399;51.444;-2.018;2023-06-19T04:47:12;2.67;;;2.43;;
43435;SDS011;36399;51.444;-2.018;2023-06-19T04:49:38;6.40;;;2.30;;
43435;SDS011;36399;51.444;-2.018;2023-06-19T04:52:04;4.13;;;3.73;;
43435;SDS011;36399;51.444;-2.018;2023-06-19T04:54:30;2.67;;;2.47;;
43435;SDS011;36399;51.444;-2.018;2023-06-19T04:56:58;9.10;;;4.57;;
43435;SDS011;36399;51.444;-2.018;2023-06-19T04:59:24;5.23;;;3.83;;
43435;SDS011;36399;51.444;-2.018;2023-06-19T05:01:50;3.10;;;2.57;;
43435;SDS011;36399;51.444;-2.018;2023-06-19T05:04:22;3.40;;;3.10;;
43435;SDS011;36399;51.444;-2.018;2023-06-19T05:06:49;4.00;;;2.57;;
43435;SDS011;36399;51.444;-2.018;2023-06-19T05:09:16;2.80;;;2.47;;
43435;SDS011;36399;51.444;-2.018;2023-06-19T05:11:42;5.93;;;3.00;;
43435;SDS011;36399;51.444;-2.018;2023-06-19T05:14:08;6.43;;;3.03;;
43435;SDS011;36399;51.444;-2.018;2023-06-19T05:16:34;8.97;;;2.63;;
43435;SDS011;36399;51.444;-2.018;2023-06-19T05:19:00;1.87;;;1.77;;
43435;SDS011;36399;51.444;-2.018;2023-06-19T05:21:26;7.43;;;2.10;;
43435;SDS011;36399;51.444;-2.018;2023-06-19T05:23:52;6.83;;;1.30;;
43435;SDS011;36399;51.444;-2.018;2023-06-19T05:26:19;8.70;;;5.43;;
43435;SDS011;36399;51.444;-2.018;2023-06-19T05:28:46;4.00;;;3.00;;
43435;SDS011;36399;51.444;-2.018;2023-06-19T05:31:12;2.67;;;2.13;;
43435;SDS011;36399;51.444;-2.018;2023-06-19T05:33:38;4.03;;;2.83;;
43435;SDS011;36399;51.444;-2.018;2023-06-19T05:36:04;1.80;;;1.67;;
43435;SDS011;36399;51.444;-2.018;2023-06-19T05:38:30;3.73;;;3.10;;
43435;SDS011;36399;51.444;-2.018;2023-06-19T05:40:56;2.00;;;1.77;;
43435;SDS011;36399;51.444;-2.018;2023-06-19T05:43:23;7.40;;;4.90;;
43435;SDS011;36399;51.444;-2.018;2023-06-19T05:45:50;3.73;;;2.90;;
43435;SDS011;36399;51.444;-2.018;2023-06-19T05:48:16;4.97;;;2.30;;
43435;SDS011;36399;51.444;-2.018;2023-06-19T05:50:42;3.43;;;3.13;;
43435;SDS011;36399;51.444;-2.018;2023-06-19T05:53:08;2.03;;;1.83;;
43435;SDS011;36399;51.444;-2.018;2023-06-19T05:55:34;5.57;;;2.73;;
43435;SDS011;36399;51.444;-2.018;2023-06-19T05:58:00;4.03;;;2.27;;
43435;SDS011;36399;51.444;-2.018;2023-06-19T06:00:26;6.17;;;2.47;;
43435;SDS011;36399;51.444;-2.018;2023-06-19T06:02:52;2.20;;;1.93;;
43435;SDS011;36399;51.444;-2.018;2023-06-19T06:05:21;5.17;;;3.93;;
43435;SDS011;36399;51.444;-2.018;2023-06-19T06:07:48;3.00;;;2.73;;
43435;SDS011;36399;51.444;-2.018;2023-06-19T06:10:13;2.83;;;2.30;;
43435;SDS011;36399;51.444;-2.018;2023-06-19T06:12:39;7.97;;;4.83;;
43435;SDS011;36399;51.444;-2.018;2023-06-19T06:15:05;3.47;;;2.43;;
43435;SDS011;36399;51.444;-2.018;2023-06-19T06:17:32;5.40;;;1.80;;
43435;SDS011;36399;51.444;-2.018;2023-06-19T06:19:57;7.87;;;3.23;;
43435;SDS011;36399;51.444;-2.018;2023-06-19T06:22:24;5.20;;;1.83;;
43435;SDS011;36399;51.444;-2.018;2023-06-19T06:24:50;6.70;;;3.03;;
43435;SDS011;36399;51.444;-2.018;2023-06-19T06:27:16;3.42;;;3.13;;
43435;SDS011;36399;51.444;-2.018;2023-06-19T06:29:42;3.78;;;3.03;;
43435;SDS011;36399;51.444;-2.018;2023-06-19T06:32:08;4.28;;;3.53;;
43435;SDS011;36399;51.444;-2.018;2023-06-19T06:34:35;4.40;;;1.60;;
43435;SDS011;36399;51.444;-2.018;2023-06-19T06:37:01;32.88;;;3.25;;
43435;SDS011;36399;51.444;-2.018;2023-06-19T06:39:27;3.35;;;2.42;;
43435;SDS011;36399;51.444;-2.018;2023-06-19T06:41:53;4.05;;;2.72;;
43435;SDS011;36399;51.444;-2.018;2023-06-19T06:44:19;2.35;;;2.15;;
43435;SDS011;36399;51.444;-2.018;2023-06-19T06:46:46;2.28;;;2.05;;
43435;SDS011;36399;51.444;-2.018;2023-06-19T06:49:12;4.07;;;1.45;;
43435;SDS011;36399;51.444;-2.018;2023-06-19T06:51:38;1.98;;;1.88;;
43435;SDS011;36399;51.444;-2.018;2023-06-19T06:54:04;2.22;;;2.03;;
43435;SDS011;36399;51.444;-2.018;2023-06-19T06:56:30;3.55;;;1.20;;
43435;SDS011;36399;51.444;-2.018;2023-06-19T06:58:56;5.10;;;2.17;;
43435;SDS011;36399;51.444;-2.018;2023-06-19T07:01:22;3.30;;;2.92;;
43435;SDS011;36399;51.444;-2.018;2023-06-19T07:03:48;5.85;;;2.25;;
43435;SDS011;36399;51.444;-2.018;2023-06-19T07:06:14;1.73;;;1.13;;
43435;SDS011;36399;51.444;-2.018;2023-06-19T07:08:40;2.42;;;1.38;;
43435;SDS011;36399;51.444;-2.018;2023-06-19T07:11:09;5.38;;;2.60;;
43435;SDS011;36399;51.444;-2.018;2023-06-19T07:13:35;1.80;;;0.95;;
43435;SDS011;36399;51.444;-2.018;2023-06-19T07:16:01;2.25;;;1.13;;
43435;SDS011;36399;51.444;-2.018;2023-06-19T07:18:27;0.63;;;0.52;;
43435;SDS011;36399;51.444;-2.018;2023-06-19T07:20:53;4.75;;;2.15;;
43435;SDS011;36399;51.444;-2.018;2023-06-19T07:23:20;3.63;;;2.58;;
43435;SDS011;36399;51.444;-2.018;2023-06-19T07:25:46;5.80;;;2.95;;
43435;SDS011;36399;51.444;-2.018;2023-06-19T07:28:13;1.17;;;1.05;;
43435;SDS011;36399;51.444;-2.018;2023-06-19T07:30:39;0.60;;;0.60;;
43435;SDS011;36399;51.444;-2.018;2023-06-19T07:33:05;1.27;;;1.15;;
43435;SDS011;36399;51.444;-2.018;2023-06-19T07:35:31;0.55;;;0.55;;
43435;SDS011;36399;51.444;-2.018;2023-06-19T07:37:57;0.95;;;0.80;;
43435;SDS011;36399;51.444;-2.018;2023-06-19T07:40:23;1.35;;;1.20;;
43435;SDS011;36399;51.444;-2.018;2023-06-19T07:42:49;1.75;;;0.68;;
43435;SDS011;36399;51.444;-2.018;2023-06-19T07:45:15;0.85;;;0.50;;
43435;SDS011;36399;51.444;-2.018;2023-06-19T07:47:41;1.25;;;1.00;;
43435;SDS011;36399;51.444;-2.018;2023-06-19T07:50:07;2.85;;;1.02;;
43435;SDS011;36399;51.444;-2.018;2023-06-19T07:52:33;1.67;;;0.90;;
43435;SDS011;36399;51.444;-2.018;2023-06-19T07:54:59;1.58;;;1.48;;
43435;SDS011;36399;51.444;-2.018;2023-06-19T07:57:25;2.95;;;0.98;;
43435;SDS011;36399;51.444;-2.018;2023-06-19T07:59:53;0.88;;;0.73;;
43435;SDS011;36399;51.444;-2.018;2023-06-19T08:02:19;2.00;;;0.40;;
43435;SDS011;36399;51.444;-2.018;2023-06-19T08:04:46;1.65;;;1.55;;
43435;SDS011;36399;51.444;-2.018;2023-06-19T08:07:12;1.23;;;1.17;;
43435;SDS011;36399;51.444;-2.018;2023-06-19T08:09:38;1.42;;;0.90;;
43435;SDS011;36399;51.444;-2.018;2023-06-19T08:12:05;1.48;;;0.80;;
43435;SDS011;36399;51.444;-2.018;2023-06-19T08:14:31;3.10;;;1.70;;
43435;SDS011;36399;51.444;-2.018;2023-06-19T08:16:57;1.77;;;1.55;;
43435;SDS011;36399;51.444;-2.018;2023-06-19T08:19:23;0.93;;;0.47;;
43435;SDS011;36399;51.444;-2.018;2023-06-19T08:21:49;0.52;;;0.43;;
43435;SDS011;36399;51.444;-2.018;2023-06-19T08:24:15;0.75;;;0.73;;
43435;SDS011;36399;51.444;-2.018;2023-06-19T08:26:41;1.05;;;0.95;;
43435;SDS011;36399;51.444;-2.018;2023-06-19T08:29:07;3.88;;;2.15;;
43435;SDS011;36399;51.444;-2.018;2023-06-19T08:31:33;1.30;;;0.95;;
43435;SDS011;36399;51.444;-2.018;2023-06-19T08:33:59;2.05;;;1.58;;
43435;SDS011;36399;51.444;-2.018;2023-06-19T08:36:26;3.53;;;1.55;;
43435;SDS011;36399;51.444;-2.018;2023-06-19T08:38:52;1.10;;;0.47;;
43435;SDS011;36399;51.444;-2.018;2023-06-19T08:41:18;0.85;;;0.80;;
43435;SDS011;36399;51.444;-2.018;2023-06-19T08:43:49;0.93;;;0.75;;
43435;SDS011;36399;51.444;-2.018;2023-06-19T08:46:16;1.02;;;0.77;;
43435;SDS011;36399;51.444;-2.018;2023-06-19T08:48:45;1.58;;;0.35;;
43435;SDS011;36399;51.444;-2.018;2023-06-19T08:51:12;0.40;;;0.32;;
43435;SDS011;36399;51.444;-2.018;2023-06-19T08:53:46;0.55;;;0.52;;
43435;SDS011;36399;51.444;-2.018;2023-06-19T08:56:16;2.97;;;1.85;;
43435;SDS011;36399;51.444;-2.018;2023-06-19T08:58:42;1.40;;;0.65;;
43435;SDS011;36399;51.444;-2.018;2023-06-19T09:01:08;1.42;;;1.13;;
43435;SDS011;36399;51.444;-2.018;2023-06-19T09:03:34;0.95;;;0.85;;
43435;SDS011;36399;51.444;-2.018;2023-06-19T09:06:03;0.82;;;0.75;;
43435;SDS011;36399;51.444;-2.018;2023-06-19T09:08:32;1.50;;;0.63;;
43435;SDS011;36399;51.444;-2.018;2023-06-19T09:10:59;2.63;;;1.27;;
43435;SDS011;36399;51.444;-2.018;2023-06-19T09:13:27;0.50;;;0.43;;
43435;SDS011;36399;51.444;-2.018;2023-06-19T09:15:59;1.90;;;0.80;;
43435;SDS011;36399;51.444;-2.018;2023-06-19T09:18:30;0.43;;;0.32;;
43435;SDS011;36399;51.444;-2.018;2023-06-19T09:20:57;5.75;;;1.00;;
43435;SDS011;36399;51.444;-2.018;2023-06-19T09:23:24;2.83;;;0.90;;
43435;SDS011;36399;51.444;-2.018;2023-06-19T09:25:51;1.10;;;0.95;;
43435;SDS011;36399;51.444;-2.018;2023-06-19T09:28:19;8.77;;;1.00;;
43435;SDS011;36399;51.444;-2.018;2023-06-19T09:30:58;1.27;;;0.65;;
43435;SDS011;36399;51.444;-2.018;2023-06-19T09:33:25;0.47;;;0.47;;
43435;SDS011;36399;51.444;-2.018;2023-06-19T09:35:53;0.90;;;0.40;;
43435;SDS011;36399;51.444;-2.018;2023-06-19T09:38:21;0.93;;;0.85;;
43435;SDS011;36399;51.444;-2.018;2023-06-19T09:40:51;0.50;;;0.40;;
43435;SDS011;36399;51.444;-2.018;2023-06-19T09:43:19;1.65;;;1.33;;
43435;SDS011;36399;51.444;-2.018;2023-06-19T09:45:52;0.73;;;0.68;;
43435;SDS011;36399;51.444;-2.018;2023-06-19T09:48:22;0.45;;;0.45;;
43435;SDS011;36399;51.444;-2.018;2023-06-19T09:51:21;0.38;;;0.30;;
43435;SDS011;36399;51.444;-2.018;2023-06-19T09:56:31;1.00;;;0.77;;
43435;SDS011;36399;51.444;-2.018;2023-06-19T09:58:58;2.00;;;1.90;;
43435;SDS011;36399;51.444;-2.018;2023-06-19T10:01:26;0.52;;;0.35;;
43435;SDS011;36399;51.444;-2.018;2023-06-19T10:04:07;0.38;;;0.38;;
43435;SDS011;36399;51.444;-2.018;2023-06-19T10:06:43;2.15;;;0.55;;
43435;SDS011;36399;51.444;-2.018;2023-06-19T10:09:11;0.47;;;0.35;;
43435;SDS011;36399;51.444;-2.018;2023-06-19T10:11:44;0.22;;;0.22;;
43435;SDS011;36399;51.444;-2.018;2023-06-19T10:14:17;1.60;;;1.33;;
43435;SDS011;36399;51.444;-2.018;2023-06-19T10:16:44;0.43;;;0.22;;
43435;SDS011;36399;51.444;-2.018;2023-06-19T10:19:17;1.65;;;1.08;;
43435;SDS011;36399;51.444;-2.018;2023-06-19T10:21:47;0.73;;;0.57;;
43435;SDS011;36399;51.444;-2.018;2023-06-19T10:24:15;0.52;;;0.40;;
43435;SDS011;36399;51.444;-2.018;2023-06-19T10:26:58;0.28;;;0.25;;
43435;SDS011;36399;51.444;-2.018;2023-06-19T10:29:25;1.45;;;0.68;;
43435;SDS011;36399;51.444;-2.018;2023-06-19T10:31:53;0.43;;;0.30;;
43435;SDS011;36399;51.444;-2.018;2023-06-19T10:34:19;0.40;;;0.40;;
43435;SDS011;36399;51.444;-2.018;2023-06-19T10:36:45;0.30;;;0.30;;
43435;SDS011;36399;51.444;-2.018;2023-06-19T10:39:11;0.20;;;0.20;;
43435;SDS011;36399;51.444;-2.018;2023-06-19T10:41:39;0.65;;;0.32;;
43435;SDS011;36399;51.444;-2.018;2023-06-19T10:44:06;2.15;;;0.22;;
43435;SDS011;36399;51.444;-2.018;2023-06-19T10:46:39;1.23;;;0.63;;
43435;SDS011;36399;51.444;-2.018;2023-06-19T10:49:06;2.90;;;0.57;;
43435;SDS011;36399;51.444;-2.018;2023-06-19T10:51:36;0.47;;;0.32;;
43435;SDS011;36399;51.444;-2.018;2023-06-19T10:54:03;0.93;;;0.30;;
43435;SDS011;36399;51.444;-2.018;2023-06-19T10:56:29;0.30;;;0.20;;
43435;SDS011;36399;51.444;-2.018;2023-06-19T10:59:05;1.08;;;0.68;;
43435;SDS011;36399;51.444;-2.018;2023-06-19T11:01:35;0.22;;;0.20;;
43435;SDS011;36399;51.444;-2.018;2023-06-19T11:04:06;0.68;;;0.17;;
43435;SDS011;36399;51.444;-2.018;2023-06-19T11:06:33;0.65;;;0.65;;
43435;SDS011;36399;51.444;-2.018;2023-06-19T11:09:00;0.40;;;0.22;;
43435;SDS011;36399;51.444;-2.018;2023-06-19T11:11:49;0.75;;;0.47;;
43435;SDS011;36399;51.444;-2.018;2023-06-19T11:14:14;0.70;;;0.47;;
43435;SDS011;36399;51.444;-2.018;2023-06-19T11:16:42;0.13;;;0.03;;
43435;SDS011;36399;51.444;-2.018;2023-06-19T11:19:14;0.77;;;0.63;;
43435;SDS011;36399;51.444;-2.018;2023-06-19T11:21:44;0.60;;;0.43;;
43435;SDS011;36399;51.444;-2.018;2023-06-19T11:24:12;0.00;;;0.00;;
43435;SDS011;36399;51.444;-2.018;2023-06-19T11:26:43;1.13;;;1.02;;
43435;SDS011;36399;51.444;-2.018;2023-06-19T11:29:21;0.63;;;0.60;;
43435;SDS011;36399;51.444;-2.018;2023-06-19T11:31:50;0.55;;;0.55;;
43435;SDS011;36399;51.444;-2.018;2023-06-19T11:34:19;0.75;;;0.65;;
43435;SDS011;36399;51.444;-2.018;2023-06-19T11:36:56;0.82;;;0.50;;
43435;SDS011;36399;51.444;-2.018;2023-06-19T11:39:22;0.75;;;0.73;;
43435;SDS011;36399;51.444;-2.018;2023-06-19T11:41:48;0.30;;;0.20;;
43435;SDS011;36399;51.444;-2.018;2023-06-19T11:44:14;0.13;;;0.10;;
43435;SDS011;36399;51.444;-2.018;2023-06-19T11:46:40;0.55;;;0.45;;
43435;SDS011;36399;51.444;-2.018;2023-06-19T11:49:11;1.00;;;0.65;;
43435;SDS011;36399;51.444;-2.018;2023-06-19T11:51:38;0.50;;;0.32;;
43435;SDS011;36399;51.444;-2.018;2023-06-19T11:54:05;0.73;;;0.73;;
43435;SDS011;36399;51.444;-2.018;2023-06-19T11:56:37;0.10;;;0.10;;
43435;SDS011;36399;51.444;-2.018;2023-06-19T11:59:04;0.40;;;0.13;;
43435;SDS011;36399;51.444;-2.018;2023-06-19T12:01:33;0.77;;;0.47;;
43435;SDS011;36399;51.444;-2.018;2023-06-19T12:04:01;0.82;;;0.57;;
43435;SDS011;36399;51.444;-2.018;2023-06-19T12:06:29;4.47;;;1.30;;
43435;SDS011;36399;51.444;-2.018;2023-06-19T12:08:56;0.90;;;0.85;;
43435;SDS011;36399;51.444;-2.018;2023-06-19T12:11:22;0.13;;;0.10;;
43435;SDS011;36399;51.444;-2.018;2023-06-19T12:13:51;1.90;;;1.45;;
43435;SDS011;36399;51.444;-2.018;2023-06-19T12:16:19;0.70;;;0.57;;
43435;SDS011;36399;51.444;-2.018;2023-06-19T12:18:44;0.45;;;0.30;;
43435;SDS011;36399;51.444;-2.018;2023-06-19T12:21:10;1.95;;;1.00;;
43435;SDS011;36399;51.444;-2.018;2023-06-19T12:23:36;0.17;;;0.17;;
43435;SDS011;36399;51.444;-2.018;2023-06-19T12:26:02;0.10;;;0.10;;
43435;SDS011;36399;51.444;-2.018;2023-06-19T12:28:29;0.52;;;0.22;;
43435;SDS011;36399;51.444;-2.018;2023-06-19T12:30:55;0.15;;;0.10;;
43435;SDS011;36399;51.444;-2.018;2023-06-19T12:33:22;0.35;;;0.35;;
43435;SDS011;36399;51.444;-2.018;2023-06-19T12:35:48;1.55;;;0.95;;
43435;SDS011;36399;51.444;-2.018;2023-06-19T12:38:14;0.05;;;0.00;;
43435;SDS011;36399;51.444;-2.018;2023-06-19T12:40:40;0.35;;;0.20;;
43435;SDS011;36399;51.444;-2.018;2023-06-19T12:43:06;1.70;;;0.40;;
43435;SDS011;36399;51.444;-2.018;2023-06-19T12:45:32;0.17;;;0.17;;
43435;SDS011;36399;51.444;-2.018;2023-06-19T12:47:58;1.00;;;0.50;;
43435;SDS011;36399;51.444;-2.018;2023-06-19T12:50:24;0.30;;;0.22;;
43435;SDS011;36399;51.444;-2.018;2023-06-19T12:52:50;0.10;;;0.10;;
43435;SDS011;36399;51.444;-2.018;2023-06-19T12:55:16;0.10;;;0.10;;
43435;SDS011;36399;51.444;-2.018;2023-06-19T12:57:42;0.25;;;0.20;;
43435;SDS011;36399;51.444;-2.018;2023-06-19T13:00:10;0.38;;;0.32;;
43435;SDS011;36399;51.444;-2.018;2023-06-19T13:02:38;0.35;;;0.35;;
43435;SDS011;36399;51.444;-2.018;2023-06-19T13:05:09;0.60;;;0.22;;
43435;SDS011;36399;51.444;-2.018;2023-06-19T13:07:38;0.00;;;0.00;;
43435;SDS011;36399;51.444;-2.018;2023-06-19T13:10:04;0.52;;;0.40;;
43435;SDS011;36399;51.444;-2.018;2023-06-19T13:12:32;2.65;;;2.08;;
43435;SDS011;36399;51.444;-2.018;2023-06-19T13:14:58;0.73;;;0.47;;
43435;SDS011;36399;51.444;-2.018;2023-06-19T13:17:24;1.90;;;0.82;;
43435;SDS011;36399;51.444;-2.018;2023-06-19T13:19:50;0.47;;;0.30;;
43435;SDS011;36399;51.444;-2.018;2023-06-19T13:22:16;1.15;;;0.10;;
43435;SDS011;36399;51.444;-2.018;2023-06-19T13:24:42;0.93;;;0.43;;
43435;SDS011;36399;51.444;-2.018;2023-06-19T13:27:07;0.05;;;0.05;;
43435;SDS011;36399;51.444;-2.018;2023-06-19T13:29:33;0.47;;;0.20;;
43435;SDS011;36399;51.444;-2.018;2023-06-19T13:31:59;0.28;;;0.20;;
43435;SDS011;36399;51.444;-2.018;2023-06-19T13:34:26;0.30;;;0.20;;
43435;SDS011;36399;51.444;-2.018;2023-06-19T13:36:52;0.13;;;0.10;;
43435;SDS011;36399;51.444;-2.018;2023-06-19T13:39:18;0.50;;;0.38;;
43435;SDS011;36399;51.444;-2.018;2023-06-19T13:41:45;0.10;;;0.10;;
43435;SDS011;36399;51.444;-2.018;2023-06-19T13:44:12;0.45;;;0.40;;
43435;SDS011;36399;51.444;-2.018;2023-06-19T13:46:38;0.75;;;0.63;;
43435;SDS011;36399;51.444;-2.018;2023-06-19T13:49:04;0.00;;;0.00;;
43435;SDS011;36399;51.444;-2.018;2023-06-19T13:51:31;0.30;;;0.30;;
43435;SDS011;36399;51.444;-2.018;2023-06-19T13:53:58;0.77;;;0.22;;
43435;SDS011;36399;51.444;-2.018;2023-06-19T13:56:24;0.40;;;0.08;;
43435;SDS011;36399;51.444;-2.018;2023-06-19T13:58:50;0.43;;;0.35;;
43435;SDS011;36399;51.444;-2.018;2023-06-19T14:01:16;0.30;;;0.17;;
43435;SDS011;36399;51.444;-2.018;2023-06-19T14:03:42;0.00;;;0.00;;
43435;SDS011;36399;51.444;-2.018;2023-06-19T14:06:08;0.13;;;0.13;;
43435;SDS011;36399;51.444;-2.018;2023-06-19T14:08:34;0.57;;;0.57;;
43435;SDS011;36399;51.444;-2.018;2023-06-19T14:11:01;0.93;;;0.30;;
43435;SDS011;36399;51.444;-2.018;2023-06-19T14:13:27;0.28;;;0.28;;
43435;SDS011;36399;51.444;-2.018;2023-06-19T14:15:53;0.10;;;0.08;;
43435;SDS011;36399;51.444;-2.018;2023-06-19T14:18:19;0.63;;;0.25;;
43435;SDS011;36399;51.444;-2.018;2023-06-19T14:20:45;4.03;;;0.88;;
43435;SDS011;36399;51.444;-2.018;2023-06-19T14:23:17;0.15;;;0.08;;
43435;SDS011;36399;51.444;-2.018;2023-06-19T14:25:43;0.50;;;0.40;;
43435;SDS011;36399;51.444;-2.018;2023-06-19T14:28:09;0.88;;;0.52;;
43435;SDS011;36399;51.444;-2.018;2023-06-19T14:30:35;0.17;;;0.17;;
43435;SDS011;36399;51.444;-2.018;2023-06-19T14:33:01;0.80;;;0.20;;
43435;SDS011;36399;51.444;-2.018;2023-06-19T14:35:27;3.88;;;0.75;;
43435;SDS011;36399;51.444;-2.018;2023-06-19T14:37:53;0.00;;;0.00;;